Decoded Metar for KEVV (EVANSVILLE in IN, USA) (IATA:EVV) | Meteo·Mobile Aviation Weather
aviador You're here:

KEVV Decoded Metar

EVANSVILLE in IN, USA
Report Time2019-01-16 18:54:00
UTC Time2019-01-16 19:27:18
Flight Rules mvfr MVFR
Wind210° at 05 kt
W.Decomp.*RWY 22: 5.0 kt HW 0.6 kt LCW
RWY 18: 4.2 kt HW 2.7 kt RCW
RWY 27: 2.7 kt HW 4.2 kt LCW
W.Rank210° ranks 1
Current wind is below 210° avg. (9.0)
Visibility9999 m
Phenomena:N/A
Clouds:Overcast 015 Hf
Expected CloudBase > 1,200 ft AGL from Temp-Dew spread
Ceiling1,500 ft
Temp06°C (ISA -8)
Dew Point03°C (81% RH)
AAT2.7°C
QNH1024 hPa
Density Alt-876 ft
Elevation384 ft
Report Wrong Elevation
Raw Report
KEVV 161854Z 21005KT 10SM OVC015 06/03 A3024 RMK AO2 SLP243
T00560028=

Extra information for KEVV:More info

Metar Taf Metar & Taf Last 4 Metars F.Rules Stats Wind Profile Meteogram Temp Stats Airport Information Weather charts Add Link Nearby VenuesMetar ALERT Operation Metar Decoded Social comments

AIRNAV info for KEVV